createdAt,value
2022-09-12T00:01:53.342Z,98685.06
2022-09-12T00:04:20.027Z,98682.00
2022-09-12T00:06:46.785Z,98676.66
2022-09-12T00:09:14.579Z,98678.13
2022-09-12T00:11:44.090Z,98663.16
2022-09-12T00:14:14.238Z,98660.03
2022-09-12T00:16:41.754Z,98677.50
2022-09-12T00:19:09.603Z,98680.91
2022-09-12T00:21:38.086Z,98678.75
2022-09-12T00:24:05.390Z,98675.91
2022-09-12T00:26:32.442Z,98668.59
2022-09-12T00:28:59.164Z,98668.13
2022-09-12T00:31:27.282Z,98665.06
2022-09-12T00:33:57.370Z,98666.53
2022-09-12T00:36:25.746Z,98663.66
2022-09-12T00:38:53.535Z,98656.41
2022-09-12T00:41:22.385Z,98653.75
2022-09-12T00:43:54.967Z,98659.06
2022-09-12T00:46:44.043Z,98658.22
2022-09-12T00:49:23.018Z,98655.47
2022-09-12T00:52:03.315Z,98653.03
2022-09-12T00:54:38.335Z,98657.84
2022-09-12T00:57:09.620Z,98661.94
2022-09-12T00:59:44.882Z,98656.19
2022-09-12T01:02:11.766Z,98648.94
2022-09-12T01:04:40.574Z,98658.28
2022-09-12T01:07:08.747Z,98657.19
2022-09-12T01:09:37.342Z,98649.97
2022-09-12T01:12:04.464Z,98654.53
2022-09-12T01:14:32.603Z,98644.72
2022-09-12T01:16:59.521Z,98647.59
2022-09-12T01:19:57.354Z,98647.97
2022-09-12T01:22:48.028Z,98655.97
2022-09-12T01:25:53.590Z,98646.06
2022-09-12T01:28:45.364Z,98651.03
2022-09-12T01:31:16.268Z,98656.00
2022-09-12T01:34:04.679Z,98652.91
2022-09-12T01:36:38.170Z,98646.59
2022-09-12T01:39:40.253Z,98649.16
2022-09-12T01:42:40.998Z,98650.97
2022-09-12T01:45:20.537Z,98650.84
2022-09-12T01:47:52.833Z,98650.34
2022-09-12T01:50:25.908Z,98644.13
2022-09-12T01:52:58.871Z,98648.59
2022-09-12T01:55:32.581Z,98643.56
2022-09-12T01:58:03.060Z,98644.66
2022-09-12T02:00:33.366Z,98649.00
2022-09-12T02:03:08.364Z,98662.94
2022-09-12T02:05:40.371Z,98659.97
2022-09-12T02:08:13.102Z,98655.63
2022-09-12T02:10:46.585Z,98653.84
2022-09-12T02:13:23.216Z,98656.88
2022-09-12T02:15:55.128Z,98661.88
2022-09-12T02:18:23.132Z,98659.13
2022-09-12T02:20:51.659Z,98656.28
2022-09-12T02:23:26.610Z,98658.63
2022-09-12T02:25:58.994Z,98662.75
2022-09-12T02:28:30.046Z,98662.13
2022-09-12T02:31:06.891Z,98665.41
2022-09-12T02:33:59.863Z,98662.53
2022-09-12T02:36:43.709Z,98664.97
2022-09-12T02:39:10.414Z,98664.75
2022-09-12T02:41:37.386Z,98657.22
2022-09-12T02:44:05.811Z,98664.53
2022-09-12T02:46:40.964Z,98660.56
2022-09-12T02:49:09.441Z,98666.06
2022-09-12T02:51:37.206Z,98665.50
2022-09-12T02:54:06.533Z,98660.50
2022-09-12T02:56:33.707Z,98671.44
2022-09-12T02:59:04.812Z,98671.66
2022-09-12T03:02:08.893Z,98665.56
2022-09-12T03:04:38.291Z,98671.19
2022-09-12T03:07:13.087Z,98666.09
2022-09-12T03:09:59.000Z,98663.75
2022-09-12T03:12:40.852Z,98667.53
2022-09-12T03:15:29.363Z,98670.47
2022-09-12T03:17:56.049Z,98671.84
2022-09-12T03:20:41.830Z,98674.69
2022-09-12T03:23:30.509Z,98666.28
2022-09-12T03:26:12.932Z,98661.28
2022-09-12T03:28:40.782Z,98667.72
2022-09-12T03:31:16.032Z,98667.06
2022-09-12T03:33:43.254Z,98668.00
2022-09-12T03:36:19.349Z,98673.31
2022-09-12T03:38:46.205Z,98675.94
2022-09-12T03:41:13.000Z,98667.06
2022-09-12T03:43:39.688Z,98674.91
2022-09-12T03:46:06.641Z,98682.56
2022-09-12T03:48:33.443Z,98683.22
2022-09-12T03:51:01.960Z,98676.03
2022-09-12T03:53:29.211Z,98683.78
2022-09-12T03:55:55.920Z,98686.22
2022-09-12T03:58:22.714Z,98691.44
2022-09-12T04:00:49.764Z,98685.00
2022-09-12T04:03:16.778Z,98689.22
2022-09-12T04:05:43.496Z,98686.38
2022-09-12T04:08:10.155Z,98690.66
2022-09-12T04:10:36.861Z,98686.94
2022-09-12T04:13:03.548Z,98697.44
2022-09-12T04:15:30.177Z,98697.25
2022-09-12T04:17:56.850Z,98686.44
2022-09-12T04:20:23.577Z,98690.69
2022-09-12T04:22:50.331Z,98686.03
2022-09-12T04:25:17.336Z,98692.19
2022-09-12T04:27:44.100Z,98698.34
2022-09-12T04:30:11.234Z,98695.50
2022-09-12T04:32:38.014Z,98693.16
2022-09-12T04:35:05.110Z,98700.63
2022-09-12T04:37:32.036Z,98690.84
2022-09-12T04:39:59.279Z,98694.69
2022-09-12T04:42:26.567Z,98700.09
2022-09-12T04:44:53.397Z,98691.72
2022-09-12T04:47:20.272Z,98692.94
2022-09-12T04:49:48.793Z,98694.63
2022-09-12T04:52:15.500Z,98694.44
2022-09-12T04:54:42.234Z,98702.84
2022-09-12T04:57:08.918Z,98706.47
2022-09-12T04:59:35.762Z,98700.84
2022-09-12T05:02:02.713Z,98696.19
2022-09-12T05:04:29.554Z,98700.56
2022-09-12T05:06:56.220Z,98699.91
2022-09-12T05:09:22.898Z,98703.13
2022-09-12T05:12:05.627Z,98692.94
2022-09-12T05:14:33.097Z,98698.66
2022-09-12T05:17:01.511Z,98700.81
2022-09-12T05:19:30.563Z,98699.63
2022-09-12T05:21:57.835Z,98697.94
2022-09-12T05:24:24.951Z,98690.56
2022-09-12T05:26:51.815Z,98700.84
2022-09-12T05:29:19.031Z,98695.25
2022-09-12T05:31:45.877Z,98694.47
2022-09-12T05:34:12.752Z,98690.34
2022-09-12T05:36:39.459Z,98690.59
2022-09-12T05:39:06.315Z,98692.31
2022-09-12T05:41:34.253Z,98687.47
2022-09-12T05:44:06.439Z,98683.84
2022-09-12T05:46:38.728Z,98681.13
2022-09-12T05:49:07.955Z,98679.50
2022-09-12T05:51:38.251Z,98674.13
2022-09-12T05:54:06.193Z,98679.53
2022-09-12T05:56:35.088Z,98683.91
2022-09-12T05:59:07.042Z,98678.56
2022-09-12T06:01:35.113Z,98678.56
2022-09-12T06:04:04.281Z,98676.00
2022-09-12T06:06:32.598Z,98681.16
2022-09-12T06:09:01.472Z,98678.97
2022-09-12T06:11:30.988Z,98682.06
2022-09-12T06:13:58.532Z,98683.28
2022-09-12T06:16:28.076Z,98669.56
2022-09-12T06:18:57.013Z,98680.75
2022-09-12T06:21:25.371Z,98674.88
2022-09-12T06:23:54.123Z,98685.34
2022-09-12T06:26:23.471Z,98689.94
2022-09-12T06:28:50.706Z,98686.19
2022-09-12T06:31:23.538Z,98685.47
2022-09-12T06:33:51.896Z,98682.31
2022-09-12T06:36:24.868Z,98686.34
2022-09-12T06:39:00.939Z,98683.44
2022-09-12T06:41:29.344Z,98689.00
2022-09-12T06:43:56.118Z,98693.09
2022-09-12T06:46:23.459Z,98685.56
2022-09-12T06:48:50.633Z,98686.28
2022-09-12T06:51:20.050Z,98686.81
2022-09-12T06:53:48.448Z,98679.88
2022-09-12T06:56:22.591Z,98682.88
2022-09-12T06:58:51.158Z,98675.16
2022-09-12T07:01:23.519Z,98671.88
2022-09-12T07:03:54.003Z,98680.09
2022-09-12T07:06:24.241Z,98680.34
2022-09-12T07:08:51.330Z,98686.06
2022-09-12T07:11:24.121Z,98688.84
2022-09-12T07:13:51.839Z,98690.03
2022-09-12T07:16:20.092Z,98687.50
2022-09-12T07:18:52.008Z,98692.50
2022-09-12T07:21:19.490Z,98701.16
2022-09-12T07:23:46.945Z,98700.91
2022-09-12T07:26:15.626Z,98701.78
2022-09-12T07:28:43.085Z,98698.56
2022-09-12T07:31:10.890Z,98701.06
2022-09-12T07:33:38.700Z,98702.50
2022-09-12T07:36:08.864Z,98696.72
2022-09-12T07:38:35.630Z,98701.06
2022-09-12T07:41:21.020Z,98700.50
2022-09-12T07:43:48.467Z,98705.41
2022-09-12T07:46:15.246Z,98705.56
2022-09-12T07:48:42.217Z,98707.38
2022-09-12T07:51:11.105Z,98699.38
2022-09-12T07:53:40.632Z,98711.94
2022-09-12T07:56:10.294Z,98708.22
2022-09-12T07:58:38.390Z,98705.47
2022-09-12T08:01:07.385Z,98697.34
2022-09-12T08:03:35.164Z,98703.50
2022-09-12T08:06:12.271Z,98700.44
2022-09-12T08:08:39.671Z,98697.88
2022-09-12T08:11:09.723Z,98702.84
2022-09-12T08:13:38.267Z,98710.72
2022-09-12T08:16:08.129Z,98708.94
2022-09-12T08:18:36.656Z,98699.59
2022-09-12T08:21:10.111Z,98707.25
2022-09-12T08:23:36.866Z,98711.59
2022-09-12T08:26:06.360Z,98707.03
2022-09-12T08:28:35.025Z,98702.56
2022-09-12T08:31:06.958Z,98697.94
2022-09-12T08:33:34.504Z,98703.88
2022-09-12T08:36:11.729Z,98707.41
2022-09-12T08:38:40.838Z,98705.34
2022-09-12T08:41:30.354Z,98707.75
2022-09-12T08:44:18.947Z,98710.16
2022-09-12T08:47:22.038Z,98708.06
2022-09-12T08:50:01.051Z,98705.63
2022-09-12T08:52:36.402Z,98701.16
2022-09-12T08:55:06.574Z,98704.06
2022-09-12T08:57:33.706Z,98710.91
2022-09-12T09:00:04.898Z,98706.06
2022-09-12T09:02:39.709Z,98700.84
2022-09-12T09:05:17.929Z,98695.63
2022-09-12T09:08:03.607Z,98701.88
2022-09-12T09:10:57.935Z,98706.72
2022-09-12T09:13:51.316Z,98705.06
2022-09-12T09:16:28.028Z,98703.50
2022-09-12T09:18:58.455Z,98697.44
2022-09-12T09:21:59.176Z,98699.69
2022-09-12T09:24:34.141Z,98697.63
2022-09-12T09:27:23.511Z,98694.31
2022-09-12T09:29:55.849Z,98683.66
2022-09-12T09:32:35.111Z,98687.44
2022-09-12T09:35:12.652Z,98681.69
2022-09-12T09:37:43.591Z,98678.72
2022-09-12T09:40:51.515Z,98675.25
2022-09-12T09:43:28.953Z,98675.84
2022-09-12T09:45:57.913Z,98689.56
2022-09-12T09:48:29.894Z,98679.84
2022-09-12T09:51:00.429Z,98686.47
2022-09-12T09:53:50.329Z,98693.97
2022-09-12T09:56:33.242Z,98697.03
2022-09-12T09:59:17.105Z,98699.50
2022-09-12T10:02:01.499Z,98701.19
2022-09-12T10:04:31.703Z,98705.03
2022-09-12T10:07:04.428Z,98716.25
2022-09-12T10:09:36.185Z,98723.06
2022-09-12T10:12:26.349Z,98723.31
2022-09-12T10:15:17.080Z,98717.06
2022-09-12T10:17:49.518Z,98711.97
2022-09-12T10:20:38.325Z,98715.97
2022-09-12T10:23:37.278Z,98707.84
2022-09-12T10:26:09.598Z,98708.69
2022-09-12T10:28:40.033Z,98714.91
2022-09-12T10:31:09.250Z,98716.72
2022-09-12T10:33:47.621Z,98710.44
2022-09-12T10:36:15.741Z,98715.63
2022-09-12T10:38:50.554Z,98714.84
2022-09-12T10:41:18.666Z,98716.81
2022-09-12T10:43:45.924Z,98714.53
2022-09-12T10:46:16.044Z,98717.97
2022-09-12T10:48:47.135Z,98722.16
2022-09-12T10:51:26.275Z,98718.31
2022-09-12T10:54:05.221Z,98713.44
2022-09-12T10:57:10.341Z,98724.88
2022-09-12T11:00:05.260Z,98724.41
2022-09-12T11:02:41.034Z,98726.22
2022-09-12T11:05:13.778Z,98731.59
2022-09-12T11:07:48.310Z,98729.06
2022-09-12T11:10:44.190Z,98735.56
2022-09-12T11:13:14.179Z,98736.78
2022-09-12T11:15:59.252Z,98732.19
2022-09-12T11:19:04.115Z,98728.91
2022-09-12T11:21:30.818Z,98737.50
2022-09-12T11:24:22.419Z,98734.56
2022-09-12T11:27:01.091Z,98740.69
2022-09-12T11:29:48.569Z,98734.94
2022-09-12T11:32:43.320Z,98733.25
2022-09-12T11:35:21.928Z,98735.59
2022-09-12T11:38:08.389Z,98735.13
2022-09-12T11:40:56.538Z,98739.09
2022-09-12T11:43:37.060Z,98744.09
2022-09-12T11:46:16.407Z,98742.41
2022-09-12T11:48:54.793Z,98734.09
2022-09-12T11:51:29.370Z,98743.25
2022-09-12T11:54:05.834Z,98751.16
2022-09-12T11:56:35.065Z,98739.47
2022-09-12T11:59:15.596Z,98743.81
2022-09-12T12:01:48.593Z,98744.25
2022-09-12T12:04:20.612Z,98742.66
2022-09-12T12:06:55.503Z,98734.72
2022-09-12T12:09:23.516Z,98738.44
2022-09-12T12:11:57.655Z,98734.06
2022-09-12T12:14:31.055Z,98740.16
2022-09-12T12:16:58.072Z,98743.09
2022-09-12T12:19:36.107Z,98737.03
2022-09-12T12:22:18.246Z,98737.72
2022-09-12T12:25:02.287Z,98737.31
2022-09-12T12:27:44.241Z,98745.06
2022-09-12T12:30:29.173Z,98741.41
2022-09-12T12:33:12.943Z,98742.69
2022-09-12T12:35:47.872Z,98745.63
2022-09-12T12:38:33.754Z,98742.94
2022-09-12T12:41:18.975Z,98749.44
2022-09-12T12:43:50.891Z,98754.31
2022-09-12T12:46:22.672Z,98752.13
2022-09-12T12:48:51.790Z,98751.94
2022-09-12T12:51:35.935Z,98753.53
2022-09-12T12:54:48.628Z,98751.09
2022-09-12T12:57:27.230Z,98755.31
2022-09-12T12:59:56.220Z,98746.47
2022-09-12T13:02:28.293Z,98752.97
2022-09-12T13:04:56.278Z,98753.41
2022-09-12T13:07:31.560Z,98747.38
2022-09-12T13:10:00.818Z,98749.19
2022-09-12T13:12:45.625Z,98758.34
2022-09-12T13:15:37.513Z,98757.16
2022-09-12T13:18:07.497Z,98766.25
2022-09-12T13:20:48.485Z,98763.09
2022-09-12T13:23:26.995Z,98763.56
2022-09-12T13:26:01.909Z,98769.31
2022-09-12T13:28:30.365Z,98774.34
2022-09-12T13:31:16.389Z,98781.41
2022-09-12T13:33:55.865Z,98774.28
2022-09-12T13:36:40.821Z,98780.81
2022-09-12T13:39:19.840Z,98779.88
2022-09-12T13:42:28.822Z,98783.13
2022-09-12T13:45:03.306Z,98789.69
2022-09-12T13:47:37.558Z,98797.66
2022-09-12T13:50:08.037Z,98791.84
2022-09-12T13:52:39.177Z,98796.72
2022-09-12T13:55:14.540Z,98791.50
2022-09-12T13:57:42.279Z,98794.28
2022-09-12T14:00:18.322Z,98796.59
2022-09-12T14:02:46.694Z,98799.19
2022-09-12T14:05:21.353Z,98800.97
2022-09-12T14:07:52.575Z,98798.97
2022-09-12T14:10:28.522Z,98792.06
2022-09-12T14:12:57.287Z,98800.22
2022-09-12T14:15:27.677Z,98795.09
2022-09-12T14:18:01.073Z,98800.81
2022-09-12T14:20:36.318Z,98799.22
2022-09-12T14:23:14.949Z,98791.63
2022-09-12T14:25:47.966Z,98790.22
2022-09-12T14:28:23.327Z,98791.69
2022-09-12T14:31:21.139Z,98796.78
2022-09-12T14:33:51.560Z,98794.13
2022-09-12T14:36:26.192Z,98790.28
2022-09-12T14:38:58.199Z,98793.56
2022-09-12T14:41:29.522Z,98798.69
2022-09-12T14:44:01.227Z,98793.34
2022-09-12T14:46:37.505Z,98798.78
2022-09-12T14:49:08.152Z,98797.91
2022-09-12T14:51:47.148Z,98798.78
2022-09-12T14:54:55.158Z,98800.25
2022-09-12T14:57:28.114Z,98796.75
2022-09-12T15:00:26.451Z,98797.34
2022-09-12T15:02:53.785Z,98799.41
2022-09-12T15:05:24.610Z,98798.69
2022-09-12T15:07:53.982Z,98798.69
2022-09-12T15:10:24.213Z,98796.00
2022-09-12T15:13:04.188Z,98804.94
2022-09-12T15:15:31.131Z,98803.13
2022-09-12T15:17:57.869Z,98809.53
2022-09-12T15:20:25.640Z,98804.38
2022-09-12T15:22:52.681Z,98808.44
2022-09-12T15:25:19.573Z,98806.75
2022-09-12T15:27:47.158Z,98811.31
2022-09-12T15:30:14.338Z,98813.34
2022-09-12T15:32:43.457Z,98812.00
2022-09-12T15:35:18.193Z,98807.75
2022-09-12T15:37:45.407Z,98813.38
2022-09-12T15:40:13.215Z,98806.59
2022-09-12T15:42:40.571Z,98811.25
2022-09-12T15:45:23.755Z,98807.25
2022-09-12T15:47:50.635Z,98810.22
2022-09-12T15:50:17.413Z,98813.41
2022-09-12T15:52:44.461Z,98812.34
2022-09-12T15:55:17.879Z,98812.56
2022-09-12T15:57:45.623Z,98822.22
2022-09-12T16:00:14.659Z,98824.25
2022-09-12T16:02:41.982Z,98821.06
2022-09-12T16:05:15.163Z,98817.03
2022-09-12T16:07:43.008Z,98820.84
2022-09-12T16:10:16.127Z,98824.03
2022-09-12T16:12:43.762Z,98822.44
2022-09-12T16:15:20.626Z,98828.81
2022-09-12T16:17:48.334Z,98831.56
2022-09-12T16:20:15.708Z,98827.97
2022-09-12T16:22:42.884Z,98829.66
2022-09-12T16:25:10.560Z,98829.75
2022-09-12T16:27:37.920Z,98836.16
2022-09-12T16:30:06.558Z,98840.69
2022-09-12T16:32:33.817Z,98840.78
2022-09-12T16:35:00.567Z,98840.06
2022-09-12T16:37:27.646Z,98837.41
2022-09-12T16:39:54.482Z,98842.72
2022-09-12T16:42:21.325Z,98841.00
2022-09-12T16:44:48.161Z,98842.81
2022-09-12T16:47:15.407Z,98848.13
2022-09-12T16:49:42.252Z,98845.47
2022-09-12T16:52:09.113Z,98843.78
2022-09-12T16:54:36.147Z,98842.91
2022-09-12T16:57:05.268Z,98842.06
2022-09-12T16:59:32.741Z,98848.22
2022-09-12T17:02:00.340Z,98846.53
2022-09-12T17:04:27.398Z,98859.72
2022-09-12T17:06:54.191Z,98857.78
2022-09-12T17:09:21.871Z,98848.63
2022-09-12T17:11:49.748Z,98855.66
2022-09-12T17:14:17.005Z,98852.06
2022-09-12T17:16:51.362Z,98851.19
2022-09-12T17:19:29.958Z,98850.25
2022-09-12T17:21:58.109Z,98855.56
2022-09-12T17:24:25.362Z,98855.47
2022-09-12T17:26:53.622Z,98851.84
2022-09-12T17:29:20.767Z,98853.63
2022-09-12T17:31:48.271Z,98849.19
2022-09-12T17:34:16.424Z,98851.84
2022-09-12T17:36:48.465Z,98849.19
2022-09-12T17:39:15.518Z,98853.75
2022-09-12T17:41:43.128Z,98851.09
2022-09-12T17:44:12.986Z,98854.63
2022-09-12T17:46:40.674Z,98851.97
2022-09-12T17:49:11.583Z,98850.25
2022-09-12T17:51:39.601Z,98852.06
2022-09-12T17:54:10.569Z,98847.69
2022-09-12T17:56:38.344Z,98842.47
2022-09-12T17:59:07.000Z,98845.13
2022-09-12T18:01:52.553Z,98846.94
2022-09-12T18:04:20.243Z,98842.69
2022-09-12T18:06:50.558Z,98845.44
2022-09-12T18:09:20.267Z,98849.06
2022-09-12T18:11:48.352Z,98844.69
2022-09-12T18:14:17.291Z,98843.00
2022-09-12T18:16:44.974Z,98842.03
2022-09-12T18:19:11.829Z,98844.81
2022-09-12T18:21:39.090Z,98844.81
2022-09-12T18:24:06.463Z,98850.94
2022-09-12T18:26:33.447Z,98850.84
2022-09-12T18:29:00.310Z,98850.84
2022-09-12T18:31:30.077Z,98850.84
2022-09-12T18:34:00.270Z,98847.34
2022-09-12T18:36:28.081Z,98850.94
2022-09-12T18:38:57.050Z,98855.44
2022-09-12T18:41:25.080Z,98853.59
2022-09-12T18:43:56.914Z,98858.91
2022-09-12T18:46:24.844Z,98852.75
2022-09-12T18:48:51.957Z,98852.66
2022-09-12T18:51:21.186Z,98847.56
2022-09-12T18:53:53.118Z,98858.06
2022-09-12T18:56:21.189Z,98846.72
2022-09-12T18:58:53.574Z,98845.84
2022-09-12T19:01:26.364Z,98844.16
2022-09-12T19:03:53.633Z,98858.38
2022-09-12T19:06:23.268Z,98856.88
2022-09-12T19:08:52.281Z,98852.53
2022-09-12T19:11:20.787Z,98860.50
2022-09-12T19:13:49.725Z,98851.66
2022-09-12T19:16:19.516Z,98857.94
2022-09-12T19:18:49.833Z,98851.00
2022-09-12T19:21:31.540Z,98851.00
2022-09-12T19:24:07.601Z,98852.00
2022-09-12T19:26:34.606Z,98852.81
2022-09-12T19:29:03.068Z,98849.34
2022-09-12T19:31:30.198Z,98852.00
2022-09-12T19:34:05.587Z,98850.19
2022-09-12T19:36:48.121Z,98844.03
2022-09-12T19:39:17.454Z,98848.47
2022-09-12T19:41:44.842Z,98847.63
2022-09-12T19:44:12.052Z,98844.13
2022-09-12T19:46:38.918Z,98839.66
2022-09-12T19:49:05.793Z,98839.66
2022-09-12T19:51:32.620Z,98846.69
2022-09-12T19:53:59.380Z,98841.47
2022-09-12T19:56:26.206Z,98838.91
2022-09-12T19:58:56.331Z,98839.00
2022-09-12T20:01:28.288Z,98839.13
2022-09-12T20:03:59.990Z,98839.22
2022-09-12T20:06:27.433Z,98841.00
2022-09-12T20:08:55.344Z,98841.97
2022-09-12T20:11:24.008Z,98840.25
2022-09-12T20:13:51.159Z,98837.59
2022-09-12T20:16:22.755Z,98844.72
2022-09-12T20:19:06.965Z,98836.84
2022-09-12T20:21:36.041Z,98850.13
2022-09-12T20:24:12.590Z,98841.22
2022-09-12T20:26:40.238Z,98841.22
2022-09-12T20:29:07.783Z,98846.31
2022-09-12T20:31:35.852Z,98840.06
2022-09-12T20:34:03.142Z,98846.97
2022-09-12T20:36:29.879Z,98845.91
2022-09-12T20:39:00.125Z,98844.97
2022-09-12T20:41:30.075Z,98843.06
2022-09-12T20:43:57.639Z,98841.28
2022-09-12T20:46:26.550Z,98836.81
2022-09-12T20:48:53.520Z,98846.34
2022-09-12T20:51:21.974Z,98837.44
2022-09-12T20:53:53.366Z,98841.03
2022-09-12T20:56:20.642Z,98838.28
2022-09-12T20:58:47.400Z,98846.25
2022-09-12T21:01:16.728Z,98852.53
2022-09-12T21:03:44.778Z,98852.63
2022-09-12T21:06:12.962Z,98845.59
2022-09-12T21:08:40.246Z,98843.94
2022-09-12T21:11:07.337Z,98849.22
2022-09-12T21:13:34.708Z,98846.56
2022-09-12T21:16:12.524Z,98839.47
2022-09-12T21:18:41.086Z,98843.81
2022-09-12T21:21:09.694Z,98829.69
2022-09-12T21:23:36.491Z,98839.47
2022-09-12T21:26:03.997Z,98835.88
2022-09-12T21:28:31.331Z,98839.47
2022-09-12T21:30:58.133Z,98836.91
2022-09-12T21:33:25.012Z,98835.19
2022-09-12T21:35:51.921Z,98824.56
2022-09-12T21:38:19.516Z,98822.78
2022-09-12T21:40:47.663Z,98822.88
2022-09-12T21:43:15.347Z,98829.03
2022-09-12T21:45:42.212Z,98825.66
2022-09-12T21:48:09.597Z,98823.84
2022-09-12T21:50:36.446Z,98823.84
2022-09-12T21:53:03.227Z,98829.25
2022-09-12T21:55:29.948Z,98825.75
2022-09-12T21:57:56.902Z,98816.91
2022-09-12T22:00:23.648Z,98825.94
2022-09-12T22:02:50.387Z,98828.59
2022-09-12T22:05:17.485Z,98819.03
2022-09-12T22:07:44.735Z,98825.31
2022-09-12T22:10:11.434Z,98818.38
2022-09-12T22:12:40.768Z,98822.84
2022-09-12T22:15:36.429Z,98825.50
2022-09-12T22:17:57.415Z,98822.84
2022-09-12T22:20:24.154Z,98820.19
2022-09-12T22:23:09.651Z,98811.16
2022-09-12T22:25:36.620Z,98812.13
2022-09-12T22:28:03.491Z,98806.72
2022-09-12T22:30:30.219Z,98805.75
2022-09-12T22:32:56.924Z,98806.50
2022-09-12T22:35:23.723Z,98810.03
2022-09-12T22:37:50.472Z,98815.22
2022-09-12T22:40:17.268Z,98809.81
2022-09-12T22:42:44.081Z,98817.78
2022-09-12T22:45:11.145Z,98813.31
2022-09-12T22:47:37.878Z,98813.31
2022-09-12T22:50:05.076Z,98809.72
2022-09-12T22:52:31.879Z,98812.28
2022-09-12T22:54:59.126Z,98816.50
2022-09-12T22:57:25.898Z,98810.34
2022-09-12T22:59:52.609Z,98810.25
2022-09-12T23:02:19.323Z,98805.78
2022-09-12T23:04:47.020Z,98810.91
2022-09-12T23:07:13.780Z,98814.38
2022-09-12T23:09:40.551Z,98801.88
2022-09-12T23:12:07.360Z,98804.53
2022-09-12T23:14:34.246Z,98800.91
2022-09-12T23:17:00.919Z,98799.97
2022-09-12T23:19:27.641Z,98790.28
2022-09-12T23:21:54.495Z,98790.19
2022-09-12T23:24:21.294Z,98792.94
2022-09-12T23:26:48.040Z,98792.84
2022-09-12T23:29:15.384Z,98796.38
2022-09-12T23:31:42.195Z,98787.44
2022-09-12T23:34:10.233Z,98789.16
2022-09-12T23:36:37.140Z,98790.97
2022-09-12T23:39:04.226Z,98786.50
2022-09-12T23:41:31.183Z,98791.59
2022-09-12T23:43:57.913Z,98790.66
2022-09-12T23:46:24.616Z,98791.50
2022-09-12T23:48:53.249Z,98786.09
2022-09-12T23:51:21.738Z,98790.41
2022-09-12T23:53:49.044Z,98788.63
2022-09-12T23:56:15.753Z,98788.53
2022-09-12T23:58:42.645Z,98778.66
